createdAt,value
2018-05-04T00:00:46.411Z,14.25
2018-05-04T00:01:46.458Z,14.19
2018-05-04T00:02:46.403Z,14.13
2018-05-04T00:03:46.400Z,14.13
2018-05-04T00:04:46.493Z,14.13
2018-05-04T00:05:46.386Z,14.13
2018-05-04T00:06:46.357Z,14.19
2018-05-04T00:07:46.513Z,14.06
2018-05-04T00:08:46.391Z,14
2018-05-04T00:09:46.385Z,14
2018-05-04T00:10:46.386Z,14
2018-05-04T00:11:46.394Z,14
2018-05-04T00:12:46.422Z,14.06
2018-05-04T00:13:46.417Z,14.06
2018-05-04T00:14:46.395Z,14.06
2018-05-04T00:15:46.424Z,14.06
2018-05-04T00:16:46.387Z,14
2018-05-04T00:17:46.410Z,14
2018-05-04T00:18:46.400Z,14
2018-05-04T00:19:46.400Z,14
2018-05-04T00:20:46.403Z,13.94
2018-05-04T00:21:46.402Z,13.94
2018-05-04T00:22:46.437Z,13.88
2018-05-04T00:23:46.388Z,13.81
2018-05-04T00:24:46.398Z,13.88
2018-05-04T00:25:46.403Z,13.81
2018-05-04T00:26:46.428Z,13.81
2018-05-04T00:27:46.416Z,13.81
2018-05-04T00:28:46.393Z,13.75
2018-05-04T00:29:46.407Z,13.81
2018-05-04T00:30:46.379Z,13.81
2018-05-04T00:31:46.397Z,13.88
2018-05-04T00:32:46.413Z,13.81
2018-05-04T00:33:46.400Z,13.81
2018-05-04T00:34:46.509Z,13.81
2018-05-04T00:35:46.398Z,13.81
2018-05-04T00:36:46.400Z,13.88
2018-05-04T00:37:46.408Z,13.88
2018-05-04T00:38:46.435Z,13.88
2018-05-04T00:39:46.434Z,13.94
2018-05-04T00:40:46.421Z,13.88
2018-05-04T00:41:46.457Z,13.94
2018-05-04T00:42:46.404Z,13.88
2018-05-04T00:43:46.478Z,13.94
2018-05-04T00:44:46.432Z,13.88
2018-05-04T00:45:46.420Z,13.88
2018-05-04T00:46:46.408Z,13.88
2018-05-04T00:47:46.430Z,13.81
2018-05-04T00:48:46.769Z,13.81
2018-05-04T00:49:46.433Z,13.75
2018-05-04T00:50:46.417Z,13.69
2018-05-04T00:51:46.443Z,13.75
2018-05-04T00:52:46.393Z,13.75
2018-05-04T00:53:46.417Z,13.75
2018-05-04T00:54:46.426Z,13.75
2018-05-04T00:55:46.459Z,13.75
2018-05-04T00:56:46.427Z,13.81
2018-05-04T00:57:46.425Z,13.75
2018-05-04T00:58:46.413Z,13.75
2018-05-04T00:59:46.416Z,13.69
2018-05-04T01:00:46.424Z,13.69
2018-05-04T01:01:46.414Z,13.69
2018-05-04T01:02:46.407Z,13.69
2018-05-04T01:03:46.411Z,13.75
2018-05-04T01:04:46.435Z,13.75
2018-05-04T01:05:46.434Z,13.75
2018-05-04T01:06:46.420Z,13.75
2018-05-04T01:07:46.429Z,13.81
2018-05-04T01:08:46.446Z,13.81
2018-05-04T01:09:46.762Z,13.81
2018-05-04T01:10:46.399Z,13.75
2018-05-04T01:11:46.557Z,13.81
2018-05-04T01:12:46.426Z,13.81
2018-05-04T01:13:46.425Z,13.75
2018-05-04T01:14:46.484Z,13.75
2018-05-04T01:15:46.469Z,13.75
2018-05-04T01:16:46.423Z,13.81
2018-05-04T01:17:46.414Z,13.75
2018-05-04T01:18:46.424Z,13.81
2018-05-04T01:19:46.484Z,13.81
2018-05-04T01:20:46.473Z,13.81
2018-05-04T01:21:46.420Z,13.75
2018-05-04T01:22:46.426Z,13.75
2018-05-04T01:23:46.446Z,13.81
2018-05-04T01:24:46.462Z,13.81
2018-05-04T01:25:46.439Z,13.75
2018-05-04T01:26:46.453Z,13.81
2018-05-04T01:27:46.461Z,13.81
2018-05-04T01:28:46.437Z,13.81
2018-05-04T01:29:46.443Z,13.81
2018-05-04T01:30:46.434Z,13.81
2018-05-04T01:31:46.458Z,13.81
2018-05-04T01:32:46.454Z,13.81
2018-05-04T01:33:46.419Z,13.81
2018-05-04T01:34:46.422Z,13.75
2018-05-04T01:35:46.431Z,13.75
2018-05-04T01:36:46.451Z,13.75
2018-05-04T01:37:46.444Z,13.69
2018-05-04T01:38:46.449Z,13.75
2018-05-04T01:39:46.451Z,13.69
2018-05-04T01:40:46.483Z,13.69
2018-05-04T01:41:46.455Z,13.69
2018-05-04T01:42:46.425Z,13.56
2018-05-04T01:43:46.437Z,13.62
2018-05-04T01:44:46.476Z,13.62
2018-05-04T01:45:46.434Z,13.62
2018-05-04T01:46:46.777Z,13.62
2018-05-04T01:47:46.459Z,13.56
2018-05-04T01:48:46.559Z,13.62
2018-05-04T01:49:46.586Z,13.62
2018-05-04T01:50:46.448Z,13.62
2018-05-04T01:51:46.434Z,13.62
2018-05-04T01:52:46.481Z,13.62
2018-05-04T01:53:46.465Z,13.56
2018-05-04T01:54:46.461Z,13.56
2018-05-04T01:55:46.478Z,13.56
2018-05-04T01:56:46.464Z,13.5
2018-05-04T01:57:46.503Z,13.44
2018-05-04T01:58:46.467Z,13.38
2018-05-04T01:59:46.460Z,13.31
2018-05-04T02:00:46.462Z,13.25
2018-05-04T02:01:46.528Z,13.25
2018-05-04T02:02:46.542Z,13.25
2018-05-04T02:03:46.458Z,13.19
2018-05-04T02:04:46.474Z,13.13
2018-05-04T02:05:46.494Z,13.13
2018-05-04T02:06:46.444Z,13.13
2018-05-04T02:07:47.028Z,13.13
2018-05-04T02:08:46.567Z,13.13
2018-05-04T02:09:46.440Z,13.19
2018-05-04T02:10:46.456Z,13.19
2018-05-04T02:11:46.434Z,13.19
2018-05-04T02:12:46.473Z,13.19
2018-05-04T02:13:46.449Z,13.19
2018-05-04T02:14:46.461Z,13.19
2018-05-04T02:15:46.527Z,13.19
2018-05-04T02:16:46.451Z,13.19
2018-05-04T02:17:46.575Z,13.19
2018-05-04T02:18:46.453Z,13.19
2018-05-04T02:19:46.451Z,13.13
2018-05-04T02:20:46.469Z,13.13
2018-05-04T02:21:46.464Z,13.19
2018-05-04T02:22:46.467Z,13.19
2018-05-04T02:23:46.448Z,13.13
2018-05-04T02:24:46.655Z,13.19
2018-05-04T02:25:46.448Z,13.13
2018-05-04T02:26:46.453Z,13.19
2018-05-04T02:27:46.564Z,13.19
2018-05-04T02:28:46.775Z,13.19
2018-05-04T02:29:46.440Z,13.13
2018-05-04T02:30:46.430Z,13.06
2018-05-04T02:31:46.462Z,13
2018-05-04T02:32:46.475Z,13.06
2018-05-04T02:33:46.449Z,13
2018-05-04T02:34:46.485Z,12.94
2018-05-04T02:35:46.456Z,12.94
2018-05-04T02:36:46.458Z,12.88
2018-05-04T02:37:46.467Z,12.94
2018-05-04T02:38:46.465Z,12.94
2018-05-04T02:39:46.481Z,12.94
2018-05-04T02:40:46.459Z,12.88
2018-05-04T02:41:46.463Z,12.94
2018-05-04T02:42:46.482Z,13
2018-05-04T02:43:46.470Z,12.94
2018-05-04T02:44:46.495Z,12.94
2018-05-04T02:45:46.492Z,12.88
2018-05-04T02:46:46.812Z,12.88
2018-05-04T02:47:46.564Z,12.88
2018-05-04T02:48:46.460Z,12.81
2018-05-04T02:49:46.485Z,12.81
2018-05-04T02:50:46.456Z,12.81
2018-05-04T02:51:46.501Z,12.81
2018-05-04T02:52:46.458Z,12.81
2018-05-04T02:53:46.478Z,12.75
2018-05-04T02:54:46.517Z,12.75
2018-05-04T02:55:46.569Z,12.69
2018-05-04T02:56:46.513Z,12.69
2018-05-04T02:57:46.535Z,12.69
2018-05-04T02:58:46.484Z,12.69
2018-05-04T02:59:46.530Z,12.69
2018-05-04T03:00:46.473Z,12.56
2018-05-04T03:01:46.468Z,12.63
2018-05-04T03:02:46.509Z,12.56
2018-05-04T03:03:46.824Z,12.56
2018-05-04T03:04:46.698Z,12.56
2018-05-04T03:05:46.465Z,12.5
2018-05-04T03:06:46.492Z,12.5
2018-05-04T03:07:46.476Z,12.44
2018-05-04T03:08:46.638Z,12.37
2018-05-04T03:09:46.543Z,12.37
2018-05-04T03:10:46.600Z,12.37
2018-05-04T03:11:46.497Z,12.31
2018-05-04T03:12:46.505Z,12.31
2018-05-04T03:13:46.511Z,12.19
2018-05-04T03:14:46.491Z,12.13
2018-05-04T03:15:46.564Z,12.13
2018-05-04T03:16:46.550Z,12.13
2018-05-04T03:17:46.467Z,12.13
2018-05-04T03:18:46.474Z,12.06
2018-05-04T03:19:46.480Z,12
2018-05-04T03:20:46.487Z,12.06
2018-05-04T03:21:46.486Z,12
2018-05-04T03:22:46.543Z,11.94
2018-05-04T03:23:46.491Z,11.94
2018-05-04T03:24:46.494Z,11.94
2018-05-04T03:25:46.497Z,11.81
2018-05-04T03:26:46.644Z,11.81
2018-05-04T03:27:46.493Z,11.81
2018-05-04T03:28:46.490Z,11.81
2018-05-04T03:29:46.517Z,11.81
2018-05-04T03:30:46.522Z,11.81
2018-05-04T03:31:46.507Z,11.81
2018-05-04T03:32:46.485Z,11.75
2018-05-04T03:33:46.466Z,11.81
2018-05-04T03:34:46.556Z,11.81
2018-05-04T03:35:46.473Z,11.81
2018-05-04T03:36:46.489Z,11.81
2018-05-04T03:37:46.476Z,11.81
2018-05-04T03:38:46.514Z,11.81
2018-05-04T03:39:46.469Z,11.88
2018-05-04T03:40:46.478Z,11.88
2018-05-04T03:41:46.473Z,11.81
2018-05-04T03:42:47.003Z,11.81
2018-05-04T03:43:46.509Z,11.75
2018-05-04T03:44:46.486Z,11.81
2018-05-04T03:45:46.483Z,11.81
2018-05-04T03:46:46.490Z,11.75
2018-05-04T03:47:46.609Z,11.81
2018-05-04T03:48:46.490Z,11.81
2018-05-04T03:49:46.481Z,11.88
2018-05-04T03:50:46.507Z,11.88
2018-05-04T03:51:46.464Z,11.88
2018-05-04T03:52:46.563Z,11.94
2018-05-04T03:53:46.478Z,11.94
2018-05-04T03:54:46.504Z,11.94
2018-05-04T03:55:46.549Z,11.94
2018-05-04T03:56:46.529Z,11.94
2018-05-04T03:57:46.473Z,11.94
2018-05-04T03:58:46.499Z,11.88
2018-05-04T03:59:46.482Z,11.94
2018-05-04T04:00:46.507Z,11.88
2018-05-04T04:01:46.519Z,11.88
2018-05-04T04:02:46.484Z,11.94
2018-05-04T04:03:46.485Z,11.88
2018-05-04T04:04:46.611Z,11.88
2018-05-04T04:05:46.588Z,11.88
2018-05-04T04:06:46.495Z,11.88
2018-05-04T04:07:46.476Z,11.88
2018-05-04T04:08:46.529Z,11.88
2018-05-04T04:09:46.483Z,11.94
2018-05-04T04:10:46.508Z,11.88
2018-05-04T04:11:46.492Z,11.88
2018-05-04T04:12:46.527Z,11.88
2018-05-04T04:13:46.507Z,11.88
2018-05-04T04:14:46.486Z,11.81
2018-05-04T04:15:46.503Z,11.81
2018-05-04T04:16:46.495Z,11.81
2018-05-04T04:17:46.532Z,11.75
2018-05-04T04:18:46.503Z,11.75
2018-05-04T04:19:46.512Z,11.69
2018-05-04T04:20:46.546Z,11.75
2018-05-04T04:21:46.544Z,11.75
2018-05-04T04:22:46.532Z,11.63
2018-05-04T04:23:46.605Z,11.56
2018-05-04T04:24:46.536Z,11.5
2018-05-04T04:25:46.511Z,11.56
2018-05-04T04:26:46.503Z,11.56
2018-05-04T04:27:46.494Z,11.56
2018-05-04T04:28:46.500Z,11.56
2018-05-04T04:29:46.528Z,11.56
2018-05-04T04:30:46.531Z,11.56
2018-05-04T04:31:46.530Z,11.56
2018-05-04T04:32:46.547Z,11.56
2018-05-04T04:33:46.525Z,11.56
2018-05-04T04:34:46.541Z,11.56
2018-05-04T04:35:46.537Z,11.56
2018-05-04T04:36:46.600Z,11.56
2018-05-04T04:37:46.538Z,11.56
2018-05-04T04:38:46.997Z,11.5
2018-05-04T04:39:46.545Z,11.56
2018-05-04T04:40:46.529Z,11.56
2018-05-04T04:41:46.589Z,11.56
2018-05-04T04:42:46.542Z,11.56
2018-05-04T04:43:46.504Z,11.56
2018-05-04T04:44:46.494Z,11.63
2018-05-04T04:45:46.504Z,11.56
2018-05-04T04:46:46.529Z,11.56
2018-05-04T04:47:46.613Z,11.63
2018-05-04T04:48:46.530Z,11.56
2018-05-04T04:49:46.532Z,11.5
2018-05-04T04:50:46.540Z,11.44
2018-05-04T04:51:46.603Z,11.5
2018-05-04T04:52:46.696Z,11.5
2018-05-04T04:53:46.541Z,11.5
2018-05-04T04:54:46.508Z,11.5
2018-05-04T04:55:46.511Z,11.5
2018-05-04T04:56:46.543Z,11.5
2018-05-04T04:57:46.535Z,11.5
2018-05-04T04:58:46.521Z,11.44
2018-05-04T04:59:46.503Z,11.44
2018-05-04T05:00:46.531Z,11.38
2018-05-04T05:01:46.878Z,11.38
2018-05-04T05:02:46.574Z,11.31
2018-05-04T05:03:46.519Z,11.31
2018-05-04T05:04:46.547Z,11.31
2018-05-04T05:05:46.554Z,11.25
2018-05-04T05:06:46.511Z,11.31
2018-05-04T05:07:46.557Z,11.31
2018-05-04T05:08:46.519Z,11.38
2018-05-04T05:09:46.562Z,11.38
2018-05-04T05:10:46.552Z,11.38
2018-05-04T05:11:46.547Z,11.44
2018-05-04T05:12:46.688Z,11.44
2018-05-04T05:13:46.619Z,11.44
2018-05-04T05:14:46.552Z,11.44
2018-05-04T05:15:46.552Z,11.44
2018-05-04T05:16:46.544Z,11.5
2018-05-04T05:17:46.551Z,11.5
2018-05-04T05:18:46.549Z,11.5
2018-05-04T05:19:46.566Z,11.44
2018-05-04T05:20:46.575Z,11.38
2018-05-04T05:21:46.958Z,11.38
2018-05-04T05:22:46.749Z,11.44
2018-05-04T05:23:47.366Z,11.44
2018-05-04T05:24:46.560Z,11.44
2018-05-04T05:25:46.574Z,11.44
2018-05-04T05:26:47.427Z,11.44
2018-05-04T05:27:46.557Z,11.5
2018-05-04T05:28:46.532Z,11.56
2018-05-04T05:29:46.545Z,11.5
2018-05-04T05:30:46.540Z,11.56
2018-05-04T05:31:46.529Z,11.56
2018-05-04T05:32:46.551Z,11.63
2018-05-04T05:33:46.585Z,11.69
2018-05-04T05:34:46.694Z,11.63
2018-05-04T05:35:46.576Z,11.63
2018-05-04T05:36:47.014Z,11.63
2018-05-04T05:37:46.556Z,11.63
2018-05-04T05:38:47.019Z,11.56
2018-05-04T05:39:46.561Z,11.56
2018-05-04T05:40:46.572Z,11.5
2018-05-04T05:41:46.575Z,11.56
2018-05-04T05:42:46.648Z,11.5
2018-05-04T05:43:46.902Z,11.5
2018-05-04T05:44:46.700Z,11.63
2018-05-04T05:45:46.618Z,11.63
2018-05-04T05:46:46.687Z,11.69
2018-05-04T05:47:46.563Z,11.63
2018-05-04T05:48:46.548Z,11.69
2018-05-04T05:49:46.548Z,11.69
2018-05-04T05:50:46.575Z,11.69
2018-05-04T05:51:46.928Z,11.75
2018-05-04T05:52:46.548Z,11.75
2018-05-04T05:53:46.730Z,11.75
2018-05-04T05:54:46.562Z,11.75
2018-05-04T05:55:46.575Z,11.75
2018-05-04T05:56:46.572Z,11.75
2018-05-04T05:57:47.744Z,11.75
2018-05-04T05:58:46.599Z,11.75
2018-05-04T05:59:46.575Z,11.75
2018-05-04T06:00:47.046Z,11.69
2018-05-04T06:01:46.588Z,11.75
2018-05-04T06:02:46.584Z,11.81
2018-05-04T06:03:46.600Z,11.81
2018-05-04T06:04:47.092Z,11.88
2018-05-04T06:05:46.596Z,11.94
2018-05-04T06:06:46.578Z,12
2018-05-04T06:07:46.586Z,12
2018-05-04T06:08:46.592Z,12
2018-05-04T06:09:46.562Z,12.06
2018-05-04T06:10:46.551Z,12.06
2018-05-04T06:11:46.599Z,12
2018-05-04T06:12:46.561Z,12
2018-05-04T06:13:46.572Z,12
2018-05-04T06:14:46.545Z,12.06
2018-05-04T06:15:46.739Z,12.06
2018-05-04T06:16:46.543Z,12.06
2018-05-04T06:17:46.542Z,12.13
2018-05-04T06:18:46.602Z,12.19
2018-05-04T06:19:46.567Z,12.13
2018-05-04T06:20:46.563Z,12.25
2018-05-04T06:21:46.748Z,12.25
2018-05-04T06:22:46.584Z,12.25
2018-05-04T06:23:46.583Z,12.31
2018-05-04T06:24:46.561Z,12.37
2018-05-04T06:25:47.173Z,12.44
2018-05-04T06:26:46.546Z,12.44
2018-05-04T06:27:46.614Z,12.5
2018-05-04T06:28:47.579Z,12.5
2018-05-04T06:29:46.565Z,12.56
2018-05-04T06:30:46.585Z,12.56
2018-05-04T06:31:46.679Z,12.56
2018-05-04T06:32:46.677Z,12.63
2018-05-04T06:33:47.100Z,12.63
2018-05-04T06:34:46.555Z,12.69
2018-05-04T06:35:46.565Z,12.69
2018-05-04T06:36:46.635Z,12.69
2018-05-04T06:37:46.774Z,12.75
2018-05-04T06:38:47.128Z,12.75
2018-05-04T06:39:47.777Z,12.81
2018-05-04T06:40:46.614Z,12.81
2018-05-04T06:41:46.560Z,12.81
2018-05-04T06:42:46.580Z,12.88
2018-05-04T06:43:46.577Z,12.88
2018-05-04T06:44:46.604Z,12.94
2018-05-04T06:45:47.381Z,12.94
2018-05-04T06:46:46.558Z,12.94
2018-05-04T06:47:46.555Z,12.94
2018-05-04T06:48:47.844Z,12.88
2018-05-04T06:49:46.589Z,12.94
2018-05-04T06:50:46.569Z,12.94
2018-05-04T06:51:46.567Z,13
2018-05-04T06:52:46.568Z,12.94
2018-05-04T06:53:46.563Z,13
2018-05-04T06:54:46.636Z,13.06
2018-05-04T06:55:46.871Z,13.06
2018-05-04T06:56:46.581Z,13.06
2018-05-04T06:57:46.601Z,13.06
2018-05-04T06:58:46.595Z,13.13
2018-05-04T07:00:03.325Z,13.19
2018-05-04T07:00:47.738Z,13.19
2018-05-04T07:01:46.568Z,13.25
2018-05-04T07:02:47.645Z,13.25
2018-05-04T07:03:46.681Z,13.31
2018-05-04T07:04:46.560Z,13.38
2018-05-04T07:05:46.661Z,13.31
2018-05-04T07:06:46.567Z,13.44
2018-05-04T07:07:46.576Z,13.38
2018-05-04T07:08:46.613Z,13.44
2018-05-04T07:09:49.406Z,13.5
2018-05-04T07:10:52.335Z,13.56
2018-05-04T07:11:46.606Z,13.5
2018-05-04T07:12:46.576Z,13.56
2018-05-04T07:13:46.575Z,13.56
2018-05-04T07:14:48.143Z,13.56
2018-05-04T07:15:46.656Z,13.62
2018-05-04T07:16:46.562Z,13.62
2018-05-04T07:17:46.586Z,13.62
2018-05-04T07:18:46.556Z,13.69
2018-05-04T07:19:47.962Z,13.69
2018-05-04T07:20:46.576Z,13.75
2018-05-04T07:21:46.602Z,13.81
2018-05-04T07:22:47.074Z,13.88
2018-05-04T07:23:46.645Z,13.94
2018-05-04T07:24:46.604Z,14
2018-05-04T07:25:46.611Z,14
2018-05-04T07:26:46.667Z,14
2018-05-04T07:27:46.658Z,14.06
2018-05-04T07:28:47.328Z,14.06
2018-05-04T07:29:46.591Z,14.13
2018-05-04T07:30:46.600Z,14.13
2018-05-04T07:31:46.619Z,14.19
2018-05-04T07:32:46.582Z,14.25
2018-05-04T07:33:46.574Z,14.25
2018-05-04T07:34:47.242Z,14.25
2018-05-04T07:35:46.613Z,14.31
2018-05-04T07:36:46.753Z,14.38
2018-05-04T07:37:46.762Z,14.38
2018-05-04T07:38:46.603Z,14.44
2018-05-04T07:39:47.103Z,14.56
2018-05-04T07:40:46.598Z,14.56
2018-05-04T07:41:46.672Z,14.63
2018-05-04T07:42:47.004Z,14.69
2018-05-04T07:43:46.927Z,14.75
2018-05-04T07:44:46.685Z,14.75
2018-05-04T07:45:46.886Z,14.75
2018-05-04T07:46:46.911Z,14.81
2018-05-04T07:47:46.715Z,14.81
2018-05-04T07:48:47.722Z,14.94
2018-05-04T07:49:46.717Z,14.94
2018-05-04T07:50:46.610Z,14.94
2018-05-04T07:51:46.569Z,15.06
2018-05-04T07:52:49.171Z,15.06
2018-05-04T07:53:46.859Z,15.06
2018-05-04T07:54:46.864Z,15.06
2018-05-04T07:55:46.635Z,15.13
2018-05-04T07:56:46.673Z,15.13
2018-05-04T07:57:46.703Z,15.13
2018-05-04T07:58:46.811Z,15.19
2018-05-04T07:59:46.685Z,15.25
2018-05-04T08:00:46.709Z,15.25
2018-05-04T08:01:46.642Z,15.31
2018-05-04T08:02:46.785Z,15.31
2018-05-04T08:03:46.598Z,15.38
2018-05-04T08:04:46.610Z,15.38
2018-05-04T08:05:46.604Z,15.38
2018-05-04T08:06:46.744Z,15.5
2018-05-04T08:07:46.644Z,15.5
2018-05-04T08:08:46.644Z,15.5
2018-05-04T08:09:46.606Z,15.56
2018-05-04T08:10:46.635Z,15.56
2018-05-04T08:11:46.635Z,15.5
2018-05-04T08:12:46.603Z,15.5
2018-05-04T08:13:46.997Z,15.56
2018-05-04T08:14:46.634Z,15.56
2018-05-04T08:15:46.698Z,15.63
2018-05-04T08:16:46.604Z,15.69
2018-05-04T08:17:46.650Z,15.69
2018-05-04T08:18:46.609Z,15.63
2018-05-04T08:19:46.653Z,15.63
2018-05-04T08:20:46.712Z,15.69
2018-05-04T08:21:46.611Z,15.69
2018-05-04T08:22:46.629Z,15.69
2018-05-04T08:23:46.743Z,15.81
2018-05-04T08:24:46.601Z,15.81
2018-05-04T08:25:46.666Z,15.88
2018-05-04T08:26:46.601Z,15.88
2018-05-04T08:27:46.782Z,15.88
2018-05-04T08:28:46.659Z,15.88
2018-05-04T08:29:47.004Z,15.94
2018-05-04T08:30:46.615Z,16
2018-05-04T08:31:46.645Z,16
2018-05-04T08:32:46.748Z,16.06
2018-05-04T08:33:46.591Z,16.19
2018-05-04T08:34:46.942Z,16.12
2018-05-04T08:35:46.660Z,16.19
2018-05-04T08:36:46.648Z,16.19
2018-05-04T08:37:46.645Z,16.31
2018-05-04T08:38:46.642Z,16.37
2018-05-04T08:39:46.821Z,16.37
2018-05-04T08:40:47.915Z,16.37
2018-05-04T08:41:46.630Z,16.37
2018-05-04T08:42:46.781Z,16.37
2018-05-04T08:43:46.633Z,16.5
2018-05-04T08:44:46.668Z,16.5
2018-05-04T08:45:46.629Z,16.5
2018-05-04T08:46:47.152Z,16.62
2018-05-04T08:47:46.611Z,16.69
2018-05-04T08:48:46.654Z,16.69
2018-05-04T08:49:46.654Z,16.75
2018-05-04T08:50:47.706Z,16.75
2018-05-04T08:51:46.654Z,16.94
2018-05-04T08:52:46.615Z,16.94
2018-05-04T08:53:46.679Z,16.94
2018-05-04T08:54:46.770Z,16.94
2018-05-04T08:55:46.619Z,16.94
2018-05-04T08:56:46.794Z,16.94
2018-05-04T08:57:46.775Z,17.06
2018-05-04T08:58:46.653Z,17.06
2018-05-04T08:59:47.234Z,17.12
2018-05-04T09:00:47.036Z,17.19
2018-05-04T09:01:46.748Z,17.25
2018-05-04T09:02:46.918Z,17.37
2018-05-04T09:03:46.751Z,17.44
2018-05-04T09:04:46.653Z,17.37
2018-05-04T09:05:46.669Z,17.37
2018-05-04T09:06:46.668Z,17.5
2018-05-04T09:07:46.712Z,17.44
2018-05-04T09:08:46.651Z,17.5
2018-05-04T09:09:46.651Z,17.56
2018-05-04T09:10:46.647Z,17.56
2018-05-04T09:11:46.733Z,17.62
2018-05-04T09:12:46.850Z,17.69
2018-05-04T09:13:46.635Z,17.62
2018-05-04T09:14:46.821Z,17.69
2018-05-04T09:15:46.679Z,17.69
2018-05-04T09:16:46.680Z,17.75
2018-05-04T09:17:46.639Z,17.75
2018-05-04T09:18:46.721Z,17.75
2018-05-04T09:19:47.261Z,17.75
2018-05-04T09:20:46.672Z,17.75
2018-05-04T09:21:46.677Z,17.75
2018-05-04T09:22:46.692Z,17.81
2018-05-04T09:23:46.641Z,17.87
2018-05-04T09:24:46.683Z,17.87
2018-05-04T09:25:46.625Z,17.94
2018-05-04T09:26:46.626Z,18
2018-05-04T09:27:46.657Z,18
2018-05-04T09:28:46.714Z,18.06
2018-05-04T09:29:46.664Z,18.12
2018-05-04T09:30:47.357Z,18.12
2018-05-04T09:31:46.658Z,18.12
2018-05-04T09:32:46.763Z,18.12
2018-05-04T09:33:47.029Z,18.19
2018-05-04T09:34:46.705Z,18.25
2018-05-04T09:35:46.632Z,18.25
2018-05-04T09:36:46.628Z,18.25
2018-05-04T09:37:46.692Z,18.25
2018-05-04T09:38:46.666Z,18.37
2018-05-04T09:39:46.692Z,18.5
2018-05-04T09:40:46.682Z,18.56
2018-05-04T09:41:46.679Z,18.69
2018-05-04T09:42:46.738Z,18.69
2018-05-04T09:43:47.351Z,18.75
2018-05-04T09:44:46.823Z,18.75
2018-05-04T09:45:46.791Z,18.81
2018-05-04T09:46:46.730Z,19
2018-05-04T09:47:46.683Z,19.06
2018-05-04T09:48:46.658Z,19.12
2018-05-04T09:49:47.167Z,19.12
2018-05-04T09:50:46.654Z,19.12
2018-05-04T09:51:46.683Z,19.12
2018-05-04T09:52:46.861Z,19.12
2018-05-04T09:53:46.645Z,19.12
2018-05-04T09:54:46.679Z,19.12
2018-05-04T09:55:46.704Z,19.12
2018-05-04T09:56:46.819Z,19.12
2018-05-04T09:57:46.714Z,19.12
2018-05-04T09:58:46.697Z,19.19
2018-05-04T09:59:46.695Z,19.19
2018-05-04T10:00:46.715Z,19.31
2018-05-04T10:01:46.689Z,19.31
2018-05-04T10:02:46.670Z,19.37
2018-05-04T10:03:46.720Z,19.44
2018-05-04T10:04:46.656Z,19.44
2018-05-04T10:05:46.661Z,19.5
2018-05-04T10:06:46.740Z,19.5
2018-05-04T10:07:46.705Z,19.56
2018-05-04T10:08:46.742Z,19.5
2018-05-04T10:09:46.701Z,19.56
2018-05-04T10:10:46.675Z,19.44
2018-05-04T10:11:46.753Z,19.44
2018-05-04T10:12:46.793Z,19.5
2018-05-04T10:13:46.724Z,19.5
2018-05-04T10:14:46.779Z,19.5
2018-05-04T10:15:46.702Z,19.56
2018-05-04T10:16:46.712Z,19.56
2018-05-04T10:17:47.236Z,19.62
2018-05-04T10:18:47.285Z,19.69
2018-05-04T10:19:46.687Z,19.69
2018-05-04T10:20:46.737Z,19.75
2018-05-04T10:21:46.703Z,19.81
2018-05-04T10:22:46.964Z,19.69
2018-05-04T10:23:46.685Z,19.75
2018-05-04T10:24:46.690Z,19.75
2018-05-04T10:25:46.847Z,19.75
2018-05-04T10:26:46.733Z,19.81
2018-05-04T10:27:46.701Z,19.81
2018-05-04T10:28:46.688Z,19.81
2018-05-04T10:29:46.824Z,19.75
2018-05-04T10:30:46.735Z,19.94
2018-05-04T10:31:46.688Z,20.25
2018-05-04T10:32:46.680Z,20.25
2018-05-04T10:33:46.686Z,20.25
2018-05-04T10:34:46.809Z,20.31
2018-05-04T10:35:46.709Z,20.31
2018-05-04T10:36:46.680Z,20.44
2018-05-04T10:37:46.769Z,20.37
2018-05-04T10:38:47.419Z,20.37
2018-05-04T10:39:46.732Z,20.44
2018-05-04T10:40:46.710Z,20.5
2018-05-04T10:41:46.715Z,20.56
2018-05-04T10:42:46.720Z,20.62
2018-05-04T10:43:46.688Z,20.62
2018-05-04T10:44:46.740Z,20.75
2018-05-04T10:45:46.741Z,20.69
2018-05-04T10:46:46.693Z,20.75
2018-05-04T10:47:46.834Z,20.81
2018-05-04T10:48:46.740Z,20.75
2018-05-04T10:49:46.728Z,20.81
2018-05-04T10:50:46.837Z,20.88
2018-05-04T10:51:46.831Z,20.88
2018-05-04T10:52:46.863Z,20.88
2018-05-04T10:53:46.687Z,21
2018-05-04T10:54:46.688Z,21.06
2018-05-04T10:55:46.730Z,21.12
2018-05-04T10:56:46.886Z,21.06
2018-05-04T10:57:46.889Z,21.12
2018-05-04T10:58:46.738Z,21.12
2018-05-04T10:59:46.704Z,21
2018-05-04T11:00:46.831Z,21.06
2018-05-04T11:01:46.803Z,21.06
2018-05-04T11:02:46.714Z,21.06
2018-05-04T11:03:46.732Z,21.06
2018-05-04T11:04:47.301Z,21.06
2018-05-04T11:05:46.775Z,21.12
2018-05-04T11:06:46.724Z,21.12
2018-05-04T11:07:46.707Z,21.06
2018-05-04T11:08:46.720Z,21.19
2018-05-04T11:09:47.083Z,21.12
2018-05-04T11:10:46.807Z,21.12
2018-05-04T11:11:46.729Z,21.19
2018-05-04T11:12:46.832Z,21.19
2018-05-04T11:13:46.725Z,21.19
2018-05-04T11:14:47.109Z,21.12
2018-05-04T11:15:46.703Z,21
2018-05-04T11:16:46.764Z,21.06
2018-05-04T11:17:46.895Z,21
2018-05-04T11:18:46.830Z,21.12
2018-05-04T11:19:46.770Z,21.19
2018-05-04T11:20:46.754Z,21.25
2018-05-04T11:21:46.752Z,21.25
2018-05-04T11:22:46.786Z,21.37
2018-05-04T11:23:46.733Z,21.44
2018-05-04T11:24:46.793Z,21.5
2018-05-04T11:25:46.796Z,21.37
2018-05-04T11:26:46.840Z,21.31
2018-05-04T11:27:46.989Z,21.44
2018-05-04T11:28:47.026Z,21.5
2018-05-04T11:29:47.020Z,21.56
2018-05-04T11:30:47.095Z,21.69
2018-05-04T11:31:46.824Z,21.75
2018-05-04T11:32:46.922Z,21.69
2018-05-04T11:33:47.042Z,21.69
2018-05-04T11:34:47.258Z,21.81
2018-05-04T11:35:46.952Z,21.81
2018-05-04T11:36:47.935Z,21.81
2018-05-04T11:37:46.832Z,21.81
2018-05-04T11:38:47.305Z,21.81
2018-05-04T11:39:46.978Z,21.87
2018-05-04T11:40:46.978Z,21.87
2018-05-04T11:41:46.880Z,21.87
2018-05-04T11:42:46.893Z,21.81
2018-05-04T11:43:46.846Z,21.87
2018-05-04T11:44:47.148Z,22
2018-05-04T11:45:47.071Z,22.06
2018-05-04T11:46:46.923Z,22.19
2018-05-04T11:47:46.898Z,22.06
2018-05-04T11:48:46.942Z,22
2018-05-04T11:49:48.266Z,22
2018-05-04T11:50:47.053Z,22.06
2018-05-04T11:51:46.845Z,22.06
2018-05-04T11:52:47.041Z,22.13
2018-05-04T11:53:46.859Z,22.13
2018-05-04T11:54:46.865Z,22.06
2018-05-04T11:55:46.860Z,22.13
2018-05-04T11:56:46.776Z,22.13
2018-05-04T11:57:46.795Z,22.25
2018-05-04T11:58:46.929Z,22.19
2018-05-04T11:59:46.890Z,22.25
2018-05-04T12:00:46.916Z,22.25
2018-05-04T12:01:46.922Z,22.31
2018-05-04T12:02:46.805Z,22.31
2018-05-04T12:03:46.726Z,22.37
2018-05-04T12:04:47.109Z,22.37
2018-05-04T12:05:46.738Z,22.37
2018-05-04T12:06:47.259Z,22.44
2018-05-04T12:07:48.494Z,22.44
2018-05-04T12:08:46.732Z,22.37
2018-05-04T12:09:46.728Z,22.31
2018-05-04T12:10:47.301Z,22.37
2018-05-04T12:11:46.891Z,22.44
2018-05-04T12:12:46.896Z,22.56
2018-05-04T12:13:46.763Z,22.56
2018-05-04T12:14:46.760Z,22.69
2018-05-04T12:15:47.001Z,22.69
2018-05-04T12:16:46.751Z,22.75
2018-05-04T12:17:46.760Z,22.81
2018-05-04T12:18:46.829Z,22.87
2018-05-04T12:19:46.776Z,22.87
2018-05-04T12:20:46.826Z,22.87
2018-05-04T12:21:46.846Z,22.87
2018-05-04T12:22:47.336Z,22.94
2018-05-04T12:23:46.785Z,23
2018-05-04T12:24:46.751Z,22.94
2018-05-04T12:25:47.122Z,22.87
2018-05-04T12:26:46.756Z,22.87
2018-05-04T12:27:46.791Z,22.94
2018-05-04T12:28:46.792Z,22.94
2018-05-04T12:29:46.736Z,23
2018-05-04T12:30:46.793Z,23
2018-05-04T12:31:47.712Z,23.06
2018-05-04T12:32:46.778Z,22.94
2018-05-04T12:33:46.742Z,23
2018-05-04T12:34:46.730Z,23.06
2018-05-04T12:35:46.892Z,23.06
2018-05-04T12:36:46.947Z,23.12
2018-05-04T12:37:46.760Z,23.25
2018-05-04T12:38:46.803Z,23.06
2018-05-04T12:39:46.766Z,23.06
2018-05-04T12:40:46.884Z,23.12
2018-05-04T12:41:46.762Z,23.12
2018-05-04T12:42:46.798Z,23.12
2018-05-04T12:43:46.855Z,23.12
2018-05-04T12:44:46.800Z,23.06
2018-05-04T12:45:46.808Z,22.87
2018-05-04T12:46:46.823Z,22.75
2018-05-04T12:47:46.998Z,22.75
2018-05-04T12:48:47.621Z,22.87
2018-05-04T12:49:46.750Z,22.94
2018-05-04T12:50:46.783Z,23
2018-05-04T12:51:46.798Z,23
2018-05-04T12:52:46.813Z,22.87
2018-05-04T12:53:47.344Z,23
2018-05-04T12:54:46.799Z,23.06
2018-05-04T12:55:46.771Z,23.12
2018-05-04T12:56:46.845Z,23.19
2018-05-04T12:57:46.897Z,23.19
2018-05-04T12:58:46.887Z,23.19